LGKN weather

Marathon Kotroni Air Base
Marathon, Attica, Greece

Public forecast

Using degrees Celsius for public forecast. Weather courtesy of forecast.io.

Closest aviation weather report (METAR) to Marathon Kotroni Air Base

Closest report is Eleftherios Venizelos International Airport, 12.1 nm (22.4 km) S. Retrieved 2019/10/22 08:20 UTC (0 seconds ago):

LGAV 220820Z 03028KT CAVOK 24/11 Q1019 NOSIG

Closest aviation forecast (TAF) to Marathon Kotroni Air Base

Closest forecast is Eleftherios Venizelos International Airport, 12.1 nm (22.4 km) S. Retrieved 2019/10/22 06:12 UTC (2 hours ago):

TAF TAF LGAV 220500Z 2206/2306 02015G25KT 9999 FEW020 TEMPO 2206/2215 02025G35KT